createdAt,value
2019-05-10T00:00:39.666Z,9.22
2019-05-10T00:03:26.333Z,9.33
2019-05-10T00:06:14.321Z,9.37
2019-05-10T00:08:45.413Z,9.34
2019-05-10T00:11:35.509Z,9.16
2019-05-10T00:14:25.341Z,9.33
2019-05-10T00:16:57.442Z,9.37
2019-05-10T00:19:26.669Z,9.43
2019-05-10T00:21:55.984Z,9.35
2019-05-10T00:24:25.372Z,9.36
2019-05-10T00:26:54.604Z,9.40
2019-05-10T00:29:23.836Z,9.40
2019-05-10T00:31:53.184Z,9.52
2019-05-10T00:34:22.422Z,9.45
2019-05-10T00:36:51.651Z,9.44
2019-05-10T00:39:21.338Z,9.44
2019-05-10T00:41:50.565Z,9.56
2019-05-10T00:44:19.786Z,9.58
2019-05-10T00:46:49.136Z,9.58
2019-05-10T00:49:18.377Z,9.52
2019-05-10T00:51:47.611Z,9.48
2019-05-10T00:54:16.946Z,9.42
2019-05-10T00:56:46.177Z,9.30
2019-05-10T00:59:15.410Z,9.39
2019-05-10T01:01:44.780Z,9.48
2019-05-10T01:04:14.019Z,9.47
2019-05-10T01:06:43.348Z,9.50
2019-05-10T01:09:14.180Z,9.52
2019-05-10T01:11:43.403Z,9.45
2019-05-10T01:14:12.626Z,9.49
2019-05-10T01:16:41.957Z,9.52
2019-05-10T01:19:11.191Z,9.52
2019-05-10T01:21:40.425Z,9.53
2019-05-10T01:24:09.712Z,9.47
2019-05-10T01:26:38.944Z,9.51
2019-05-10T01:29:08.177Z,9.38
2019-05-10T01:31:37.603Z,9.14
2019-05-10T01:34:06.920Z,9.01
2019-05-10T01:36:36.152Z,9.05
2019-05-10T01:39:06.634Z,9.02
2019-05-10T01:41:35.862Z,9.01
2019-05-10T01:44:05.102Z,8.95
2019-05-10T01:46:34.376Z,9.12
2019-05-10T01:49:03.608Z,9.13
2019-05-10T01:51:32.837Z,9.14
2019-05-10T01:54:02.108Z,9.16
2019-05-10T01:56:31.334Z,9.05
2019-05-10T01:59:00.563Z,9.13
2019-05-10T02:01:30.600Z,9.04
2019-05-10T02:03:59.848Z,8.91
2019-05-10T02:06:29.087Z,8.98
2019-05-10T02:08:58.355Z,8.88
2019-05-10T02:11:27.599Z,8.92
2019-05-10T02:13:56.830Z,8.90
2019-05-10T02:16:26.095Z,8.88
2019-05-10T02:18:55.320Z,8.96
2019-05-10T02:21:24.550Z,8.91
2019-05-10T02:23:53.872Z,8.86
2019-05-10T02:26:23.103Z,8.89
2019-05-10T02:28:52.326Z,8.82
2019-05-10T02:31:22.130Z,8.87
2019-05-10T02:33:51.536Z,8.78
2019-05-10T02:36:21.993Z,8.61
2019-05-10T02:38:51.272Z,8.70
2019-05-10T02:41:20.510Z,8.68
2019-05-10T02:43:49.757Z,8.66
2019-05-10T02:46:19.070Z,8.55
2019-05-10T02:48:48.293Z,8.60
2019-05-10T02:51:17.534Z,8.56
2019-05-10T02:53:46.811Z,8.56
2019-05-10T02:56:29.846Z,8.52
2019-05-10T02:58:47.118Z,8.36
2019-05-10T03:01:17.832Z,8.38
2019-05-10T03:03:48.367Z,8.39
2019-05-10T03:06:19.195Z,8.41
2019-05-10T03:08:49.534Z,8.49
2019-05-10T03:11:19.079Z,8.41
2019-05-10T03:13:49.124Z,8.31
2019-05-10T03:16:19.884Z,8.25
2019-05-10T03:18:50.566Z,8.25
2019-05-10T03:21:19.805Z,8.11
2019-05-10T03:23:49.093Z,8.07
2019-05-10T03:26:19.366Z,8.04
2019-05-10T03:28:48.600Z,8.06
2019-05-10T03:31:18.314Z,8.08
2019-05-10T03:33:54.894Z,8.19
2019-05-10T03:36:18.408Z,8.36
2019-05-10T03:38:47.664Z,8.08
2019-05-10T03:41:16.907Z,7.92
2019-05-10T03:43:46.167Z,7.98
2019-05-10T03:46:15.432Z,8.03
2019-05-10T03:48:44.674Z,7.93
2019-05-10T03:51:13.908Z,8.01
2019-05-10T03:53:43.231Z,8.04
2019-05-10T03:56:12.480Z,8.10
2019-05-10T03:58:41.717Z,7.98
2019-05-10T04:01:10.987Z,7.82
2019-05-10T04:03:40.365Z,7.79
2019-05-10T04:06:09.856Z,8.11
2019-05-10T04:08:39.195Z,8.27
2019-05-10T04:11:08.361Z,8.31
2019-05-10T04:13:37.593Z,8.45
2019-05-10T04:16:08.897Z,8.57
2019-05-10T04:18:38.125Z,8.55
2019-05-10T04:21:07.377Z,8.67
2019-05-10T04:23:36.682Z,8.91
2019-05-10T04:26:05.910Z,9.01
2019-05-10T04:28:36.113Z,9.00
2019-05-10T04:31:05.374Z,8.58
2019-05-10T04:33:34.612Z,8.69
2019-05-10T04:36:03.845Z,8.86
2019-05-10T04:38:33.171Z,9.13
2019-05-10T04:41:02.401Z,9.21
2019-05-10T04:43:31.636Z,9.26
2019-05-10T04:46:01.133Z,9.44
2019-05-10T04:48:30.370Z,9.38
2019-05-10T04:50:59.612Z,9.49
2019-05-10T04:53:28.884Z,9.65
2019-05-10T04:55:58.111Z,9.96
2019-05-10T04:58:27.351Z,10.13
2019-05-10T05:00:56.838Z,10.45
2019-05-10T05:03:26.276Z,10.45
2019-05-10T05:05:55.517Z,10.65
2019-05-10T05:08:24.783Z,10.75
2019-05-10T05:10:54.031Z,10.96
2019-05-10T05:13:23.286Z,11.21
2019-05-10T05:15:52.557Z,11.19
2019-05-10T05:18:21.805Z,11.20
2019-05-10T05:20:51.049Z,11.10
2019-05-10T05:23:20.381Z,11.23
2019-05-10T05:25:49.598Z,11.39
2019-05-10T05:28:23.367Z,11.70
2019-05-10T05:30:49.745Z,11.54
2019-05-10T05:33:18.962Z,11.68
2019-05-10T05:35:48.269Z,11.94
2019-05-10T05:38:17.573Z,12.11
2019-05-10T05:40:46.882Z,12.39
2019-05-10T05:43:16.159Z,12.74
2019-05-10T05:45:45.600Z,12.93
2019-05-10T05:48:16.086Z,12.95
2019-05-10T05:50:45.897Z,13.26
2019-05-10T05:53:15.178Z,13.41
2019-05-10T05:55:44.689Z,13.72
2019-05-10T05:58:25.826Z,13.36
2019-05-10T06:00:46.618Z,13.28
2019-05-10T06:03:19.339Z,12.47
2019-05-10T06:05:46.735Z,12.36
2019-05-10T06:08:22.908Z,12.43
2019-05-10T06:10:56.724Z,12.87
2019-05-10T06:13:23.166Z,13.30
2019-05-10T06:15:48.588Z,13.42
2019-05-10T06:18:17.832Z,13.18
2019-05-10T06:20:47.139Z,13.37
2019-05-10T06:23:16.454Z,13.54
2019-05-10T06:25:46.692Z,13.70
2019-05-10T06:28:26.241Z,13.72
2019-05-10T06:30:47.871Z,14.14
2019-05-10T06:33:17.109Z,14.27
2019-05-10T06:35:46.388Z,14.40
2019-05-10T06:38:15.625Z,14.38
2019-05-10T06:40:47.718Z,14.30
2019-05-10T06:43:17.596Z,14.32
2019-05-10T06:45:52.227Z,14.27
2019-05-10T06:48:26.029Z,14.38
2019-05-10T06:50:48.980Z,13.67
2019-05-10T06:53:18.220Z,13.54
2019-05-10T06:55:47.444Z,13.45
2019-05-10T06:58:16.741Z,13.05
2019-05-10T07:00:48.541Z,12.75
2019-05-10T07:03:17.880Z,12.82
2019-05-10T07:05:47.118Z,12.81
2019-05-10T07:08:20.348Z,12.80
2019-05-10T07:10:47.248Z,12.84
2019-05-10T07:13:16.469Z,12.94
2019-05-10T07:15:45.710Z,12.78
2019-05-10T07:18:16.714Z,12.96
2019-05-10T07:20:45.841Z,12.92
2019-05-10T07:23:15.232Z,12.96
2019-05-10T07:25:46.722Z,12.95
2019-05-10T07:28:17.517Z,12.95
2019-05-10T07:30:46.586Z,12.89
2019-05-10T07:33:16.912Z,12.86
2019-05-10T07:35:46.181Z,12.81
2019-05-10T07:38:15.567Z,12.80
2019-05-10T07:40:44.924Z,12.99
2019-05-10T07:43:24.819Z,13.04
2019-05-10T07:45:45.377Z,13.15
2019-05-10T07:48:14.649Z,13.23
2019-05-10T07:50:49.162Z,13.30
2019-05-10T07:53:16.354Z,13.25
2019-05-10T07:55:46.661Z,13.29
2019-05-10T07:58:17.264Z,13.54
2019-05-10T08:00:46.782Z,13.77
2019-05-10T08:03:22.774Z,13.73
2019-05-10T08:05:55.245Z,13.97
2019-05-10T08:08:19.168Z,14.11
2019-05-10T08:10:48.934Z,13.95
2019-05-10T08:13:23.298Z,13.57
2019-05-10T08:15:50.128Z,13.24
2019-05-10T08:18:23.500Z,12.94
2019-05-10T08:20:56.670Z,12.87
2019-05-10T08:23:23.884Z,12.77
2019-05-10T08:25:53.349Z,12.50
2019-05-10T08:28:27.868Z,12.57
2019-05-10T08:30:58.760Z,12.29
2019-05-10T08:33:26.109Z,12.34
2019-05-10T08:36:00.482Z,12.37
2019-05-10T08:38:26.205Z,12.48
2019-05-10T08:40:55.533Z,12.41
2019-05-10T08:43:33.125Z,12.43
2019-05-10T08:45:58.001Z,12.45
2019-05-10T08:48:27.827Z,12.44
2019-05-10T08:51:02.029Z,12.51
2019-05-10T08:53:28.127Z,12.67
2019-05-10T08:55:59.000Z,13.35
2019-05-10T08:58:36.889Z,13.98
2019-05-10T09:01:15.221Z,14.54
2019-05-10T09:03:32.154Z,14.82
2019-05-10T09:06:11.122Z,15.09
2019-05-10T09:08:34.861Z,15.35
2019-05-10T09:11:06.983Z,15.24
2019-05-10T09:13:40.896Z,15.22
2019-05-10T09:16:06.214Z,15.17
2019-05-10T09:18:38.104Z,15.36
2019-05-10T09:21:08.869Z,15.57
2019-05-10T09:23:39.139Z,15.72
2019-05-10T09:26:11.738Z,15.23
2019-05-10T09:28:39.223Z,14.71
2019-05-10T09:31:18.689Z,14.40
2019-05-10T09:33:48.883Z,14.50
2019-05-10T09:36:12.493Z,14.52
2019-05-10T09:38:44.219Z,14.29
2019-05-10T09:41:12.819Z,14.36
2019-05-10T09:43:48.351Z,14.67
2019-05-10T09:46:14.142Z,14.90
2019-05-10T09:48:45.061Z,14.90
2019-05-10T09:51:19.003Z,15.22
2019-05-10T09:53:48.322Z,15.03
2019-05-10T09:56:17.700Z,14.79
2019-05-10T09:58:48.232Z,14.82
2019-05-10T10:01:21.645Z,15.30
2019-05-10T10:03:48.956Z,15.79
2019-05-10T10:06:18.196Z,15.71
2019-05-10T10:08:51.244Z,15.40
2019-05-10T10:11:18.846Z,14.68
2019-05-10T10:13:58.754Z,14.67
2019-05-10T10:16:19.815Z,15.08
2019-05-10T10:18:49.052Z,15.22
2019-05-10T10:21:27.292Z,15.35
2019-05-10T10:23:49.319Z,15.19
2019-05-10T10:26:22.212Z,15.00
2019-05-10T10:28:54.512Z,15.14
2019-05-10T10:31:29.543Z,15.33
2019-05-10T10:33:58.326Z,15.37
2019-05-10T10:36:23.034Z,15.53
2019-05-10T10:38:52.361Z,15.91
2019-05-10T10:41:25.969Z,16.82
2019-05-10T10:43:52.485Z,17.09
2019-05-10T10:46:23.767Z,16.56
2019-05-10T10:48:52.996Z,17.08
2019-05-10T10:51:26.614Z,17.26
2019-05-10T10:53:54.849Z,17.39
2019-05-10T10:56:24.028Z,17.10
2019-05-10T10:58:53.266Z,17.16
2019-05-10T11:01:25.634Z,17.49
2019-05-10T11:03:53.411Z,17.43
2019-05-10T11:06:22.631Z,17.43
2019-05-10T11:08:52.014Z,16.81
2019-05-10T11:11:21.246Z,16.60
2019-05-10T11:13:58.125Z,17.03
2019-05-10T11:16:21.442Z,17.25
2019-05-10T11:18:51.925Z,17.23
2019-05-10T11:21:23.350Z,17.56
2019-05-10T11:23:52.315Z,17.69
2019-05-10T11:26:21.801Z,17.55
2019-05-10T11:28:51.479Z,17.61
2019-05-10T11:31:21.394Z,17.83
2019-05-10T11:33:53.630Z,17.98
2019-05-10T11:36:21.912Z,17.91
2019-05-10T11:38:53.600Z,17.67
2019-05-10T11:41:24.501Z,17.54
2019-05-10T11:43:57.929Z,17.86
2019-05-10T11:46:23.860Z,18.15
2019-05-10T11:48:53.091Z,18.55
2019-05-10T11:51:22.329Z,18.49
2019-05-10T11:53:55.354Z,18.78
2019-05-10T11:56:27.400Z,17.64
2019-05-10T11:58:56.414Z,16.89
2019-05-10T12:01:25.648Z,17.16
2019-05-10T12:03:54.888Z,17.20
2019-05-10T12:06:24.170Z,17.80
2019-05-10T12:09:00.802Z,17.41
2019-05-10T12:13:57.530Z,18.19
2019-05-10T12:16:25.997Z,18.47
2019-05-10T12:19:10.532Z,17.96
2019-05-10T12:21:26.192Z,17.93
2019-05-10T12:23:56.663Z,18.05
2019-05-10T12:26:19.634Z,17.70
2019-05-10T12:29:02.778Z,18.41
2019-05-10T12:31:27.872Z,18.62
2019-05-10T12:34:00.476Z,18.11
2019-05-10T12:36:31.297Z,18.27
2019-05-10T12:39:01.799Z,17.98
2019-05-10T12:41:31.638Z,18.60
2019-05-10T12:44:04.054Z,19.13
2019-05-10T12:46:32.240Z,18.88
2019-05-10T12:49:02.176Z,18.66
2019-05-10T12:51:32.456Z,18.52
2019-05-10T12:54:01.683Z,18.76
2019-05-10T12:56:34.913Z,19.53
2019-05-10T12:59:01.833Z,19.24
2019-05-10T13:01:32.119Z,19.46
2019-05-10T13:04:02.307Z,19.44
2019-05-10T13:06:32.869Z,18.88
2019-05-10T13:09:02.144Z,18.92
2019-05-10T13:11:31.353Z,18.96
2019-05-10T13:14:06.525Z,18.62
2019-05-10T13:16:31.522Z,18.93
2019-05-10T13:19:00.757Z,18.88
2019-05-10T13:21:30.555Z,18.81
2019-05-10T13:23:59.876Z,18.51
2019-05-10T13:26:29.136Z,18.78
2019-05-10T13:29:05.481Z,18.47
2019-05-10T13:31:29.803Z,18.68
2019-05-10T13:33:59.066Z,18.51
2019-05-10T13:36:30.662Z,18.51
2019-05-10T13:38:59.164Z,18.34
2019-05-10T13:41:28.427Z,18.63
2019-05-10T13:43:58.820Z,18.52
2019-05-10T13:46:28.552Z,18.29
2019-05-10T13:48:57.794Z,18.33
2019-05-10T13:51:27.141Z,18.61
2019-05-10T13:53:59.112Z,18.53
2019-05-10T13:56:27.251Z,18.02
2019-05-10T13:58:56.519Z,18.17
2019-05-10T14:01:25.784Z,18.72
2019-05-10T14:04:01.086Z,18.51
2019-05-10T14:06:25.938Z,18.58
2019-05-10T14:08:55.176Z,18.93
2019-05-10T14:11:24.439Z,19.09
2019-05-10T14:13:53.760Z,19.53
2019-05-10T14:16:23.008Z,19.52
2019-05-10T14:18:52.241Z,19.58
2019-05-10T14:21:21.608Z,19.18
2019-05-10T14:23:51.044Z,19.15
2019-05-10T14:26:20.296Z,18.94
2019-05-10T14:28:52.968Z,18.61
2019-05-10T14:31:20.428Z,18.36
2019-05-10T14:34:14.025Z,17.86
2019-05-10T14:36:20.636Z,17.45
2019-05-10T14:38:53.666Z,17.03
2019-05-10T14:41:21.911Z,16.98
2019-05-10T14:43:51.152Z,16.71
2019-05-10T14:46:20.381Z,16.83
2019-05-10T14:48:49.647Z,17.07
2019-05-10T14:51:18.881Z,17.44
2019-05-10T14:53:48.117Z,17.69
2019-05-10T14:56:17.449Z,17.84
2019-05-10T14:58:46.691Z,17.47
2019-05-10T15:01:15.928Z,17.71
2019-05-10T15:03:47.215Z,18.64
2019-05-10T15:06:17.211Z,18.60
2019-05-10T15:08:46.449Z,18.48
2019-05-10T15:11:18.105Z,18.42
2019-05-10T15:13:47.345Z,17.86
2019-05-10T15:16:26.046Z,17.40
2019-05-10T15:18:47.481Z,17.26
2019-05-10T15:21:16.713Z,17.07
2019-05-10T15:23:45.944Z,16.37
2019-05-10T15:26:15.344Z,16.08
2019-05-10T15:28:44.776Z,15.92
2019-05-10T15:31:14.008Z,15.55
2019-05-10T15:33:43.517Z,15.38
2019-05-10T15:36:12.745Z,15.25
2019-05-10T15:38:49.790Z,15.22
2019-05-10T15:41:16.993Z,15.16
2019-05-10T15:43:48.955Z,15.12
2019-05-10T15:46:15.776Z,15.00
2019-05-10T15:48:45.093Z,15.03
2019-05-10T15:51:16.863Z,15.03
2019-05-10T15:53:45.187Z,15.09
2019-05-10T15:56:14.455Z,15.14
2019-05-10T15:58:43.689Z,15.18
2019-05-10T16:01:14.385Z,15.27
2019-05-10T16:03:43.841Z,15.30
2019-05-10T16:06:13.120Z,15.23
2019-05-10T16:08:42.636Z,15.14
2019-05-10T16:11:18.754Z,15.06
2019-05-10T16:13:42.917Z,15.04
2019-05-10T16:16:12.165Z,15.08
2019-05-10T16:18:41.752Z,15.09
2019-05-10T16:21:15.236Z,14.99
2019-05-10T16:23:46.644Z,14.98
2019-05-10T16:26:17.502Z,14.90
2019-05-10T16:28:44.057Z,14.94
2019-05-10T16:31:13.296Z,14.89
2019-05-10T16:33:42.577Z,14.86
2019-05-10T16:36:11.815Z,14.79
2019-05-10T16:38:41.081Z,14.68
2019-05-10T16:41:10.390Z,14.64
2019-05-10T16:43:39.625Z,14.62
2019-05-10T16:46:08.872Z,14.53
2019-05-10T16:48:38.205Z,14.49
2019-05-10T16:51:10.022Z,14.41
2019-05-10T16:53:43.885Z,14.43
2019-05-10T16:56:13.439Z,14.35
2019-05-10T16:58:40.416Z,14.27
2019-05-10T17:01:09.656Z,14.20
2019-05-10T17:03:38.999Z,14.14
2019-05-10T17:06:08.224Z,14.08
2019-05-10T17:08:38.839Z,14.06
2019-05-10T17:11:10.107Z,14.00
2019-05-10T17:13:41.479Z,13.95
2019-05-10T17:16:17.102Z,13.81
2019-05-10T17:18:44.331Z,13.75
2019-05-10T17:21:13.581Z,13.68
2019-05-10T17:23:46.815Z,13.64
2019-05-10T17:26:13.766Z,13.54
2019-05-10T17:28:42.992Z,13.46
2019-05-10T17:31:12.265Z,13.42
2019-05-10T17:33:42.484Z,13.37
2019-05-10T17:36:19.325Z,13.19
2019-05-10T17:38:47.352Z,13.17
2019-05-10T17:41:22.695Z,13.11
2019-05-10T17:43:49.072Z,13.02
2019-05-10T17:46:18.862Z,13.00
2019-05-10T17:48:49.549Z,12.96
2019-05-10T17:51:20.413Z,13.00
2019-05-10T17:53:54.945Z,12.94
2019-05-10T17:56:20.627Z,12.90
2019-05-10T17:58:49.959Z,12.96
2019-05-10T18:01:19.197Z,12.89
2019-05-10T18:03:48.434Z,12.87
2019-05-10T18:06:23.878Z,12.87
2019-05-10T18:08:48.562Z,12.84
2019-05-10T18:11:17.819Z,12.79
2019-05-10T18:13:47.153Z,12.73
2019-05-10T18:16:16.884Z,12.72
2019-05-10T18:18:48.218Z,12.65
2019-05-10T18:21:22.067Z,12.60
2019-05-10T18:23:52.544Z,12.60
2019-05-10T18:26:18.950Z,12.51
2019-05-10T18:28:48.334Z,12.51
2019-05-10T18:31:17.580Z,12.42
2019-05-10T18:33:54.197Z,12.36
2019-05-10T18:36:17.716Z,12.25
2019-05-10T18:38:49.849Z,12.22
2019-05-10T18:41:19.080Z,12.17
2019-05-10T18:43:48.423Z,12.15
2019-05-10T18:46:17.668Z,12.11
2019-05-10T18:48:46.936Z,11.94
2019-05-10T18:51:17.898Z,11.97
2019-05-10T18:53:47.062Z,12.02
2019-05-10T18:56:16.328Z,12.02
2019-05-10T18:58:45.619Z,12.23
2019-05-10T19:01:15.020Z,12.24
2019-05-10T19:03:44.389Z,12.17
2019-05-10T19:06:13.702Z,12.22
2019-05-10T19:08:44.153Z,12.21
2019-05-10T19:11:14.114Z,12.18
2019-05-10T19:13:47.838Z,12.09
2019-05-10T19:16:14.503Z,11.98
2019-05-10T19:18:43.753Z,11.99
2019-05-10T19:21:13.248Z,11.88
2019-05-10T19:23:42.498Z,11.76
2019-05-10T19:26:11.753Z,11.67
2019-05-10T19:28:41.144Z,11.55
2019-05-10T19:31:10.491Z,11.46
2019-05-10T19:33:39.730Z,11.35
2019-05-10T19:36:13.355Z,11.33
2019-05-10T19:38:39.880Z,11.29
2019-05-10T19:41:09.112Z,11.37
2019-05-10T19:43:38.391Z,11.38
2019-05-10T19:46:08.719Z,11.42
2019-05-10T19:48:38.016Z,11.44
2019-05-10T19:51:09.483Z,11.37
2019-05-10T19:53:42.300Z,11.24
2019-05-10T19:56:09.117Z,11.05
2019-05-10T19:58:38.393Z,11.01
2019-05-10T20:01:07.643Z,10.99
2019-05-10T20:03:36.874Z,10.93
2019-05-10T20:06:06.147Z,10.78
2019-05-10T20:08:35.376Z,10.77
2019-05-10T20:11:04.618Z,10.70
2019-05-10T20:13:33.932Z,10.56
2019-05-10T20:16:03.154Z,10.44
2019-05-10T20:18:32.387Z,10.28
2019-05-10T20:21:01.665Z,10.23
2019-05-10T20:23:30.909Z,10.04
2019-05-10T20:26:00.692Z,9.95
2019-05-10T20:28:29.952Z,9.83
2019-05-10T20:30:59.201Z,9.94
2019-05-10T20:33:28.421Z,9.70
2019-05-10T20:35:57.776Z,9.64
2019-05-10T20:38:27.114Z,9.65
2019-05-10T20:40:56.682Z,9.60
2019-05-10T20:43:26.309Z,9.68
2019-05-10T20:45:55.543Z,9.54
2019-05-10T20:48:25.699Z,9.49
2019-05-10T20:50:55.283Z,9.40
2019-05-10T20:53:24.511Z,9.43
2019-05-10T20:55:53.749Z,9.31
2019-05-10T20:58:23.073Z,9.36
2019-05-10T21:00:52.317Z,9.18
2019-05-10T21:03:21.540Z,9.23
2019-05-10T21:05:50.819Z,9.13
2019-05-10T21:08:20.065Z,9.05
2019-05-10T21:10:49.292Z,8.93
2019-05-10T21:13:18.572Z,8.87
2019-05-10T21:15:47.810Z,8.96
2019-05-10T21:18:17.038Z,8.88
2019-05-10T21:20:46.359Z,8.80
2019-05-10T21:23:15.663Z,8.77
2019-05-10T21:25:44.971Z,8.66
2019-05-10T21:28:14.292Z,8.53
2019-05-10T21:30:43.621Z,8.58
2019-05-10T21:33:12.852Z,8.69
2019-05-10T21:35:42.120Z,8.80
2019-05-10T21:38:11.353Z,8.53
2019-05-10T21:40:40.617Z,8.67
2019-05-10T21:43:09.924Z,8.67
2019-05-10T21:45:39.151Z,8.60
2019-05-10T21:48:08.388Z,8.69
2019-05-10T21:50:37.663Z,8.66
2019-05-10T21:53:06.897Z,8.60
2019-05-10T21:55:36.172Z,8.58
2019-05-10T21:58:05.451Z,8.52
2019-05-10T22:00:38.919Z,8.25
2019-05-10T22:03:08.125Z,8.23
2019-05-10T22:05:37.462Z,8.21
2019-05-10T22:08:06.687Z,8.31
2019-05-10T22:10:35.932Z,8.32
2019-05-10T22:13:05.216Z,8.33
2019-05-10T22:15:36.789Z,8.22
2019-05-10T22:18:06.072Z,8.15
2019-05-10T22:20:35.305Z,8.14
2019-05-10T22:23:04.642Z,7.99
2019-05-10T22:25:33.980Z,7.89
2019-05-10T22:28:03.203Z,7.88
2019-05-10T22:30:32.440Z,7.91
2019-05-10T22:33:01.703Z,7.84
2019-05-10T22:35:31.107Z,7.79
2019-05-10T22:38:00.374Z,7.66
2019-05-10T22:40:29.616Z,7.64
2019-05-10T22:42:58.850Z,7.70
2019-05-10T22:45:28.179Z,7.76
2019-05-10T22:47:59.812Z,7.58
2019-05-10T22:50:29.040Z,7.59
2019-05-10T22:52:58.285Z,7.31
2019-05-10T22:55:27.552Z,7.22
2019-05-10T22:57:56.784Z,7.26
2019-05-10T23:00:26.244Z,7.40
2019-05-10T23:02:55.527Z,7.29
2019-05-10T23:05:24.761Z,7.49
2019-05-10T23:07:53.987Z,7.28
2019-05-10T23:10:23.332Z,7.23
2019-05-10T23:12:52.560Z,6.68
2019-05-10T23:15:21.792Z,6.45
2019-05-10T23:17:51.063Z,6.49
2019-05-10T23:20:21.973Z,6.77
2019-05-10T23:22:51.211Z,6.70
2019-05-10T23:25:20.489Z,6.74
2019-05-10T23:27:49.720Z,6.81
2019-05-10T23:30:18.956Z,6.97
2019-05-10T23:32:48.273Z,7.06
2019-05-10T23:35:17.502Z,6.78
2019-05-10T23:37:46.734Z,6.82
2019-05-10T23:40:15.991Z,6.04
2019-05-10T23:42:45.220Z,6.04
2019-05-10T23:45:14.453Z,5.88
2019-05-10T23:47:43.716Z,5.71
2019-05-10T23:50:13.055Z,6.12
2019-05-10T23:52:43.294Z,6.19
2019-05-10T23:55:12.650Z,6.37
2019-05-10T23:57:41.912Z,6.37
